Time;durP1;ratioP1;P1;durP2;ratioP2;P2;SDS_P1;SDS_P2;PMS_P1;PMS_P2;Temp;Humidity;BMP_temperature;BMP_pressure;BME280_temperature;BME280_humidity;BME280_pressure;Samples;Min_cycle;Max_cycle;Signal;HPM_P1;HPM_P2
2023/01/07 00:01:40;;;;;;;25.20;16.30;;;;;;;6.29;100.00;98729.61;103141;1313;22481;-75
2023/01/07 00:04:14;;;;;;;24.90;14.60;;;;;;;6.31;100.00;98732.48;103008;1313;138837;-75
2023/01/07 00:06:43;;;;;;;30.20;19.50;;;;;;;6.32;100.00;98731.03;103080;1313;24351;-75
2023/01/07 00:09:15;;;;;;;25.90;16.60;;;;;;;6.34;100.00;98735.51;103072;1313;139245;-75
2023/01/07 00:11:43;;;;;;;28.40;17.80;;;;;;;6.35;100.00;98736.21;103080;1298;22658;-75
2023/01/07 00:14:12;;;;;;;25.20;16.60;;;;;;;6.36;100.00;98732.56;103045;1291;22599;-74
2023/01/07 00:16:40;;;;;;;25.00;16.90;;;;;;;6.36;100.00;98734.09;103015;1309;138214;-75
2023/01/07 00:19:13;;;;;;;25.50;17.30;;;;;;;6.37;100.00;98736.14;103021;1312;22466;-75
2023/01/07 00:21:40;;;;;;;28.90;18.00;;;;;;;6.38;100.00;98739.42;102934;1309;139478;-75
2023/01/07 00:24:09;;;;;;;28.80;17.60;;;;;;;6.38;100.00;98740.29;103083;1312;22495;-75
2023/01/07 00:26:37;;;;;;;28.50;17.40;;;;;;;6.39;100.00;98740.37;103040;1304;138513;-75
2023/01/07 00:29:06;;;;;;;29.20;17.50;;;;;;;6.39;100.00;98744.65;103419;1307;24292;-74
2023/01/07 00:31:36;;;;;;;28.00;17.80;;;;;;;6.41;100.00;98743.95;103424;1294;25394;-75
2023/01/07 00:36:34;;;;;;;28.40;18.70;;;;;;;6.42;100.00;98751.15;103212;1298;25153;-75
2023/01/07 00:39:27;;;;;;;28.60;19.30;;;;;;;6.42;100.00;98752.36;102951;1295;138643;-75
2023/01/07 00:44:40;;;;;;;31.70;18.50;;;;;;;6.43;100.00;98757.18;103209;1313;139185;-74
2023/01/07 00:47:07;;;;;;;27.70;17.80;;;;;;;6.43;100.00;98758.59;103229;1306;22461;-73
2023/01/07 00:49:33;;;;;;;30.20;18.50;;;;;;;6.43;100.00;98758.17;103081;1301;22511;-74
2023/01/07 00:52:00;;;;;;;28.80;18.90;;;;;;;6.44;100.00;98760.50;102896;1291;138092;-73
2023/01/07 00:54:27;;;;;;;28.40;19.50;;;;;;;6.43;100.00;98761.09;103063;1313;24300;-73
2023/01/07 00:56:55;;;;;;;30.20;19.50;;;;;;;6.43;100.00;98761.67;102961;1313;138213;-73
2023/01/07 00:59:22;;;;;;;30.50;19.60;;;;;;;6.41;100.00;98764.37;103051;1298;23313;-74
2023/01/07 01:01:50;;;;;;;30.50;20.60;;;;;;;6.41;100.00;98764.96;103192;1312;22479;-73
2023/01/07 01:04:17;;;;;;;30.50;19.00;;;;;;;6.41;100.00;98774.41;102893;1313;138211;-73
2023/01/07 01:06:44;;;;;;;29.80;19.30;;;;;;;6.41;100.00;98771.38;103025;1293;25262;-74
2023/01/07 01:09:12;;;;;;;29.80;19.10;;;;;;;6.41;100.00;98778.54;103016;1313;139108;-73
2023/01/07 01:11:40;;;;;;;33.00;20.10;;;;;;;6.41;100.00;98785.69;103213;1313;22489;-73
2023/01/07 01:14:09;;;;;;;32.00;20.60;;;;;;;6.41;100.00;98788.36;103020;1313;22517;-73
2023/01/07 01:16:36;;;;;;;30.00;19.10;;;;;;;6.41;100.00;98792.52;102903;1304;138157;-73
2023/01/07 01:19:03;;;;;;;30.90;18.30;;;;;;;6.42;100.00;98790.85;102903;1313;24301;-73
2023/01/07 01:21:30;;;;;;;31.90;20.60;;;;;;;6.42;100.00;98790.60;102862;1289;138289;-73
2023/01/07 01:23:57;;;;;;;34.80;20.70;;;;;;;6.43;100.00;98789.64;102999;1313;22877;-73
2023/01/07 01:26:24;;;;;;;32.90;20.00;;;;;;;6.42;100.00;98784.11;102822;1307;228785;-74
2023/01/07 01:28:51;;;;;;;34.50;20.10;;;;;;;6.42;100.00;98782.95;102874;1305;138453;-73
2023/01/07 01:31:19;;;;;;;26.80;18.40;;;;;;;6.40;100.00;98775.04;102998;1313;22499;-73
2023/01/07 01:33:52;;;;;;;30.00;17.90;;;;;;;6.37;100.00;98774.54;102928;1313;138303;-73
2023/01/07 01:36:19;;;;;;;30.40;19.40;;;;;;;6.35;100.00;98777.76;103022;1313;24288;-73
2023/01/07 01:38:46;;;;;;;30.30;18.20;;;;;;;6.33;100.00;98787.98;102793;1313;138309;-73
2023/01/07 01:41:17;;;;;;;27.50;17.40;;;;;;;6.30;100.00;98788.73;103003;1313;24246;-73
2023/01/07 01:43:45;;;;;;;30.20;18.10;;;;;;;6.28;100.00;98791.11;103895;1298;22443;-74
2023/01/07 01:46:21;;;;;;;26.00;17.10;;;;;;;6.26;100.00;98787.36;104270;1305;138682;-74
2023/01/07 01:48:55;;;;;;;24.30;17.40;;;;;;;6.25;100.00;98791.78;104681;1289;22628;-74
2023/01/07 01:51:26;;;;;;;25.70;16.80;;;;;;;6.26;100.00;98794.77;103077;1291;138210;-73
2023/01/07 01:53:54;;;;;;;24.60;17.80;;;;;;;6.26;100.00;98795.28;103565;1291;22473;-74
2023/01/07 01:56:28;;;;;;;29.30;18.00;;;;;;;6.27;100.00;98793.90;103093;1308;22437;-73
2023/01/07 01:59:02;;;;;;;26.50;17.00;;;;;;;6.28;100.00;98798.15;103195;1310;138660;-73
2023/01/07 02:01:32;;;;;;;25.10;15.50;;;;;;;6.27;100.00;98791.95;104214;1297;22508;-74
2023/01/07 02:04:09;;;;;;;24.10;16.00;;;;;;;6.27;100.00;98794.65;103287;1304;138064;-73
2023/01/07 02:06:42;;;;;;;26.40;16.50;;;;;;;6.27;100.00;98796.48;103671;1303;24376;-73
2023/01/07 02:09:11;;;;;;;28.50;18.20;;;;;;;6.26;100.00;98797.44;103074;1310;138236;-73
2023/01/07 02:12:12;;;;;;;28.90;18.50;;;;;;;6.26;100.00;98796.77;103686;1305;22480;-73
2023/01/07 02:14:54;;;;;;;31.00;17.50;;;;;;;6.26;100.00;98795.02;103300;1308;138727;-74
2023/01/07 02:17:27;;;;;;;28.50;18.10;;;;;;;6.24;100.00;98799.73;104236;1304;22514;-74
2023/01/07 02:20:25;;;;;;;32.20;19.20;;;;;;;6.23;100.00;98801.14;104083;1295;25518;-75
2023/01/07 02:23:41;;;;;;;31.90;19.10;;;;;;;6.22;100.00;98796.86;102909;1301;137926;-74
2023/01/07 02:26:48;;;;;;;27.70;17.80;;;;;;;6.20;100.00;98802.09;103637;1304;22622;-74
2023/01/07 02:29:31;;;;;;;30.90;17.90;;;;;;;6.18;100.00;98802.09;103304;1299;22487;-74
2023/01/07 02:32:36;;;;;;;30.10;19.40;;;;;;;6.16;100.00;98810.80;103057;1302;24320;-74
2023/01/07 02:35:41;;;;;;;28.90;18.70;;;;;;;6.14;100.00;98813.00;103585;1303;22542;-74
2023/01/07 02:38:32;;;;;;;30.80;19.60;;;;;;;6.13;100.00;98816.16;103047;1298;22546;-74
2023/01/07 02:41:40;;;;;;;34.70;22.70;;;;;;;6.12;100.00;98812.55;102988;1289;137820;-74
2023/01/07 02:44:37;;;;;;;36.90;22.60;;;;;;;6.12;100.00;98813.50;103094;1311;22464;-74
2023/01/07 02:47:12;;;;;;;38.40;22.20;;;;;;;6.11;100.00;98809.47;103569;1298;138091;-74
2023/01/07 02:49:39;;;;;;;36.20;21.90;;;;;;;6.11;100.00;98815.45;103125;1298;25106;-74
2023/01/07 02:52:15;;;;;;;34.30;20.90;;;;;;;6.11;100.00;98817.45;103317;1307;138374;-74
2023/01/07 02:54:43;;;;;;;38.70;21.80;;;;;;;6.10;100.00;98825.35;103701;1298;22576;-74
2023/01/07 02:57:29;;;;;;;38.20;23.50;;;;;;;6.08;100.00;98824.27;103437;1305;138952;-74
2023/01/07 03:00:32;;;;;;;36.90;22.40;;;;;;;6.08;100.00;98826.60;103029;1311;22504;-74
2023/01/07 03:03:19;;;;;;;39.70;22.10;;;;;;;6.07;100.00;98822.42;102937;1298;138327;-74
2023/01/07 03:05:52;;;;;;;34.90;20.70;;;;;;;6.06;100.00;98823.77;102971;1313;22491;-74
2023/01/07 03:08:24;;;;;;;39.10;22.80;;;;;;;6.06;100.00;98824.02;102986;1298;22514;-74
2023/01/07 03:11:07;;;;;;;38.80;22.20;;;;;;;6.04;100.00;98825.09;102780;1309;138486;-74
2023/01/07 03:22:33;;;;;;;36.30;21.30;;;;;;;5.99;100.00;98819.35;103167;1296;25276;-74
2023/01/07 03:25:02;;;;;;;39.50;22.20;;;;;;;5.98;100.00;98815.40;103554;1301;22523;-74
2023/01/07 03:27:34;;;;;;;38.80;22.60;;;;;;;5.97;100.00;98815.81;103928;1313;138319;-74
2023/01/07 03:30:07;;;;;;;38.40;22.20;;;;;;;5.96;100.00;98820.10;102743;1313;26743;-74
2023/01/07 03:32:39;;;;;;;39.20;23.00;;;;;;;5.96;100.00;98828.20;102985;1300;22593;-74
2023/01/07 03:35:07;;;;;;;41.10;23.70;;;;;;;5.95;100.00;98833.92;102793;1291;138953;-74
2023/01/07 03:37:33;;;;;;;43.20;25.10;;;;;;;5.94;100.00;98830.64;102819;1313;22494;-74
2023/01/07 03:40:08;;;;;;;43.80;26.10;;;;;;;5.94;100.00;98826.88;102573;1308;138432;-74
2023/01/07 03:42:38;;;;;;;41.30;24.60;;;;;;;5.92;100.00;98821.89;102968;1297;22477;-74
2023/01/07 03:45:10;;;;;;;44.90;25.60;;;;;;;5.90;100.00;98818.68;102807;1310;138235;-74
2023/01/07 03:47:42;;;;;;;43.30;23.00;;;;;;;5.87;100.00;98818.30;103009;1300;22498;-74
2023/01/07 03:50:09;;;;;;;42.90;24.70;;;;;;;5.84;100.00;98814.31;102990;1308;24293;-74
2023/01/07 03:52:37;;;;;;;41.70;23.60;;;;;;;5.80;100.00;98812.89;102930;1293;138079;-74
2023/01/07 03:55:05;;;;;;;40.40;23.80;;;;;;;5.76;100.00;98816.63;102817;1313;22514;-74
2023/01/07 03:57:32;;;;;;;42.90;24.60;;;;;;;5.73;100.00;98824.11;102734;1303;138385;-74
2023/01/07 04:00:02;;;;;;;40.60;24.10;;;;;;;5.69;100.00;98820.64;102937;1313;22490;-74
2023/01/07 04:02:53;;;;;;;41.70;23.70;;;;;;;5.63;100.00;98816.34;103045;1300;22476;-74
2023/01/07 04:05:23;;;;;;;42.20;23.20;;;;;;;5.58;100.00;98814.30;102514;1297;25260;-74
2023/01/07 04:07:50;;;;;;;42.00;25.90;;;;;;;5.53;100.00;98815.57;102986;1304;25042;-74
2023/01/07 04:10:18;;;;;;;43.40;26.20;;;;;;;5.46;100.00;98807.82;102808;1288;139473;-74
2023/01/07 04:12:45;;;;;;;43.40;25.70;;;;;;;5.41;100.00;98808.60;102968;1312;22703;-74
2023/01/07 04:15:12;;;;;;;43.20;24.50;;;;;;;5.36;100.00;98812.48;102701;1304;138263;-74
2023/01/07 04:17:39;;;;;;;44.90;26.20;;;;;;;5.31;100.00;98812.09;102962;1292;25377;-74
2023/01/07 04:20:06;;;;;;;43.70;25.50;;;;;;;5.26;100.00;98820.09;103011;1291;25359;-73
2023/01/07 04:22:34;;;;;;;50.00;28.60;;;;;;;5.22;100.00;98819.88;102965;1312;139152;-74
2023/01/07 04:25:02;;;;;;;49.50;27.50;;;;;;;5.18;100.00;98823.42;102939;1305;22760;-74
2023/01/07 04:27:30;;;;;;;46.90;27.50;;;;;;;5.13;100.00;98824.33;103043;1307;139016;-74
2023/01/07 04:29:57;;;;;;;46.30;26.40;;;;;;;5.09;100.00;98825.21;102927;1305;22508;-74
2023/01/07 04:32:24;;;;;;;46.20;26.70;;;;;;;5.06;100.00;98821.14;102970;1290;22490;-74
2023/01/07 04:34:51;;;;;;;46.10;26.50;;;;;;;5.03;100.00;98826.14;102875;1303;138037;-74
2023/01/07 04:37:18;;;;;;;48.20;27.00;;;;;;;5.01;100.00;98827.88;102988;1313;22501;-74
2023/01/07 04:39:45;;;;;;;47.50;26.80;;;;;;;4.98;100.00;98825.63;102755;1291;138458;-74
2023/01/07 04:42:16;;;;;;;44.60;25.70;;;;;;;4.94;100.00;98821.94;102832;1291;25359;-74
2023/01/07 04:44:43;;;;;;;45.00;26.10;;;;;;;4.91;100.00;98821.77;102969;1311;22507;-74
2023/01/07 04:47:11;;;;;;;48.10;28.20;;;;;;;4.88;100.00;98827.98;102893;1310;137884;-74
2023/01/07 04:49:38;;;;;;;49.50;27.30;;;;;;;4.85;100.00;98822.67;102985;1295;22588;-74
2023/01/07 04:52:15;;;;;;;46.60;26.50;;;;;;;4.83;100.00;98822.38;102762;1301;138224;-74
2023/01/07 04:54:43;;;;;;;48.30;27.70;;;;;;;4.79;100.00;98818.51;103248;1300;23090;-74
2023/01/07 04:57:10;;;;;;;53.30;29.00;;;;;;;4.77;100.00;98822.43;102837;1313;138364;-74
2023/01/07 04:59:38;;;;;;;50.70;28.40;;;;;;;4.73;100.00;98821.95;103063;1309;22509;-74
2023/01/07 05:02:06;;;;;;;50.90;28.00;;;;;;;4.70;100.00;98828.98;102989;1304;22853;-74
2023/01/07 05:04:32;;;;;;;51.90;29.50;;;;;;;4.68;100.00;98833.24;102890;1297;138523;-74
2023/01/07 05:07:00;;;;;;;53.70;29.60;;;;;;;4.66;100.00;98835.84;103000;1313;23103;-74
2023/01/07 05:09:27;;;;;;;46.10;25.80;;;;;;;4.63;100.00;98839.65;102713;1312;139222;-74
2023/01/07 05:11:54;;;;;;;54.40;29.60;;;;;;;4.60;100.00;98839.30;102863;1297;24428;-74
2023/01/07 05:14:22;;;;;;;49.20;27.70;;;;;;;4.58;100.00;98844.84;102948;1312;22502;-74
2023/01/07 05:16:51;;;;;;;48.80;26.70;;;;;;;4.53;100.00;98846.35;102815;1313;138436;-74
2023/01/07 05:19:20;;;;;;;50.10;27.40;;;;;;;4.48;100.00;98848.05;102981;1303;22520;-74
2023/01/07 05:21:48;;;;;;;50.50;25.90;;;;;;;4.42;100.00;98847.13;102983;1298;138229;-74
2023/01/07 05:24:15;;;;;;;45.90;25.90;;;;;;;4.37;100.00;98854.60;102960;1313;24250;-74
2023/01/07 05:26:42;;;;;;;51.00;26.90;;;;;;;4.31;100.00;98856.09;102964;1313;24389;-74
2023/01/07 05:29:10;;;;;;;48.30;26.10;;;;;;;4.28;100.00;98856.69;102498;1311;139198;-74
2023/01/07 05:31:37;;;;;;;52.60;30.10;;;;;;;4.27;100.00;98859.00;102935;1303;24224;-74
2023/01/07 05:34:04;;;;;;;53.20;28.80;;;;;;;4.25;100.00;98854.99;102840;1294;138245;-73
2023/01/07 05:36:32;;;;;;;46.00;25.90;;;;;;;4.24;100.00;98857.39;102940;1313;22472;-74
2023/01/07 05:38:59;;;;;;;55.10;28.30;;;;;;;4.21;100.00;98858.61;102482;1291;138307;-74
2023/01/07 05:41:26;;;;;;;51.50;27.90;;;;;;;4.20;100.00;98858.56;103067;1313;22944;-74
2023/01/07 05:43:53;;;;;;;53.40;30.20;;;;;;;4.18;100.00;98854.68;102625;1307;22494;-73
2023/01/07 05:46:20;;;;;;;50.70;27.50;;;;;;;4.17;100.00;98860.20;102804;1304;138319;-73
2023/01/07 05:48:47;;;;;;;50.40;26.60;;;;;;;4.15;100.00;98862.96;102975;1312;25326;-74
2023/01/07 05:51:14;;;;;;;50.70;28.20;;;;;;;4.14;100.00;98862.98;102732;1312;139490;-74
2023/01/07 05:53:41;;;;;;;51.60;27.30;;;;;;;4.13;100.00;98863.48;103004;1297;25429;-73
2023/01/07 05:56:08;;;;;;;71.00;27.80;;;;;;;4.12;100.00;98866.98;103012;1310;22983;-73
2023/01/07 05:58:35;;;;;;;55.20;23.00;;;;;;;4.11;100.00;98870.55;102875;1294;138682;-74
2023/01/07 06:01:02;;;;;;;70.70;23.50;;;;;;;4.08;100.00;98868.88;102962;1310;22534;-74
2023/01/07 06:03:28;;;;;;;69.50;23.80;;;;;;;4.05;100.00;98874.43;102798;1292;138309;-74
2023/01/07 06:05:55;;;;;;;48.80;20.30;;;;;;;4.02;100.00;98880.87;102941;1310;22500;-74
2023/01/07 06:08:22;;;;;;;43.80;21.00;;;;;;;3.99;100.00;98879.77;103002;1310;24337;-74
2023/01/07 06:10:49;;;;;;;35.70;20.50;;;;;;;3.96;100.00;98878.98;102866;1303;138564;-74
2023/01/07 06:13:16;;;;;;;56.40;21.00;;;;;;;3.95;100.00;98879.36;103015;1301;23398;-73
2023/01/07 06:15:43;;;;;;;48.30;18.40;;;;;;;3.93;100.00;98873.08;102876;1306;139004;-74
2023/01/07 06:18:10;;;;;;;39.20;17.80;;;;;;;3.90;100.00;98871.09;103006;1291;26527;-73
2023/01/07 06:20:37;;;;;;;49.50;19.90;;;;;;;3.89;100.00;98876.48;102965;1304;25358;-73
2023/01/07 06:23:03;;;;;;;38.10;19.50;;;;;;;3.88;100.00;98875.17;102876;1311;138855;-73
2023/01/07 06:25:30;;;;;;;50.70;19.40;;;;;;;3.88;100.00;98877.91;102963;1311;22541;-73
2023/01/07 06:27:57;;;;;;;32.20;17.30;;;;;;;3.86;100.00;98875.04;102862;1289;138474;-73
2023/01/07 06:30:24;;;;;;;41.40;18.10;;;;;;;3.84;100.00;98879.52;102905;1313;22608;-73
2023/01/07 06:32:52;;;;;;;34.70;18.50;;;;;;;3.81;100.00;98882.11;102952;1297;22476;-73
2023/01/07 06:35:19;;;;;;;31.20;15.50;;;;;;;3.81;100.00;98888.80;102865;1312;138095;-73
2023/01/07 06:37:46;;;;;;;30.20;17.20;;;;;;;3.79;100.00;98884.83;103367;1297;22546;-74
2023/01/07 06:40:13;;;;;;;33.30;17.60;;;;;;;3.78;100.00;98882.11;102904;1313;138081;-74
2023/01/07 06:42:40;;;;;;;39.40;17.10;;;;;;;3.77;100.00;98882.23;103281;1297;25444;-74
2023/01/07 06:45:08;;;;;;;42.80;19.00;;;;;;;3.77;100.00;98883.88;103393;1303;138511;-74
2023/01/07 06:47:35;;;;;;;37.00;18.50;;;;;;;3.76;100.00;98887.94;103378;1298;22486;-74
2023/01/07 06:50:01;;;;;;;38.80;17.40;;;;;;;3.76;100.00;98891.79;103279;1297;22940;-74
2023/01/07 06:52:28;;;;;;;43.70;17.90;;;;;;;3.74;100.00;98889.82;103437;1282;138293;-74
2023/01/07 06:54:55;;;;;;;32.10;17.20;;;;;;;3.74;100.00;98889.90;103395;1298;22506;-74
2023/01/07 06:57:22;;;;;;;49.10;19.10;;;;;;;3.73;100.00;98889.39;102879;1276;138539;-73
2023/01/07 06:59:49;;;;;;;33.50;15.10;;;;;;;3.74;100.00;98888.61;103006;1312;24365;-73
2023/01/07 07:02:24;;;;;;;29.30;15.60;;;;;;;3.73;100.00;98888.33;102999;1298;22488;-73
2023/01/07 07:04:52;;;;;;;35.50;16.20;;;;;;;3.74;100.00;98892.23;103171;1282;138163;-74
2023/01/07 07:07:20;;;;;;;35.00;16.90;;;;;;;3.75;100.00;98889.89;103018;1291;22520;-73
2023/01/07 07:09:47;;;;;;;33.40;15.60;;;;;;;3.76;100.00;98889.77;102877;1299;138878;-73
2023/01/07 07:12:14;;;;;;;50.10;17.40;;;;;;;3.76;100.00;98886.70;103484;1310;24327;-74
2023/01/07 07:14:41;;;;;;;36.20;16.40;;;;;;;3.76;100.00;98887.64;103717;1288;22584;-74
2023/01/07 07:17:08;;;;;;;35.60;17.20;;;;;;;3.75;100.00;98891.87;103642;1281;138822;-74
2023/01/07 07:19:35;;;;;;;49.70;16.50;;;;;;;3.76;100.00;98891.24;102971;1311;22497;-73
2023/01/07 07:22:02;;;;;;;31.50;15.20;;;;;;;3.76;100.00;98889.59;103068;1291;138149;-73
2023/01/07 07:24:29;;;;;;;36.30;16.20;;;;;;;3.77;100.00;98891.77;103201;1290;25605;-74
2023/01/07 07:26:55;;;;;;;38.50;15.00;;;;;;;3.78;100.00;98887.14;103503;1291;22484;-73
2023/01/07 07:29:22;;;;;;;40.20;16.00;;;;;;;3.80;100.00;98892.75;103332;1299;138172;-73
2023/01/07 07:31:49;;;;;;;31.80;15.70;;;;;;;3.80;100.00;98889.30;103732;1288;24327;-74
2023/01/07 07:34:16;;;;;;;33.80;15.40;;;;;;;3.79;100.00;98893.11;103462;1288;138269;-74
2023/01/07 07:36:43;;;;;;;31.40;15.20;;;;;;;3.80;100.00;98895.02;103314;1287;25294;-73
2023/01/07 07:39:10;;;;;;;44.80;15.60;;;;;;;3.81;100.00;98896.94;102900;1288;138296;-73
2023/01/07 07:41:37;;;;;;;39.00;14.40;;;;;;;3.82;100.00;98896.45;102959;1291;22487;-73
2023/01/07 07:44:07;;;;;;;32.80;15.10;;;;;;;3.81;100.00;98894.00;103871;1296;22478;-74
2023/01/07 07:46:34;;;;;;;29.70;13.80;;;;;;;3.80;100.00;98893.50;104062;1294;138623;-73
2023/01/07 07:49:01;;;;;;;31.70;15.40;;;;;;;3.80;100.00;98895.40;103251;1311;22514;-73
2023/01/07 07:51:28;;;;;;;39.50;16.40;;;;;;;3.77;100.00;98903.45;103406;1294;138472;-74
2023/01/07 07:53:55;;;;;;;35.30;15.30;;;;;;;3.73;100.00;98907.42;104769;1305;23517;-74
2023/01/07 07:56:21;;;;;;;33.10;15.40;;;;;;;3.71;100.00;98904.25;104859;1281;22551;-74
2023/01/07 07:58:49;;;;;;;31.40;16.10;;;;;;;3.76;100.00;98902.39;105336;1288;140180;-75
2023/01/07 08:01:16;;;;;;;35.80;17.00;;;;;;;3.83;100.00;98902.93;103614;1297;25470;-74
2023/01/07 08:03:43;;;;;;;36.90;17.60;;;;;;;3.91;100.00;98900.48;103216;1313;139536;-74
2023/01/07 08:06:11;;;;;;;46.40;16.50;;;;;;;3.96;100.00;98899.52;103119;1313;22547;-74
2023/01/07 08:08:38;;;;;;;47.40;17.00;;;;;;;3.98;100.00;98897.02;102997;1312;22499;-74
2023/01/07 08:11:05;;;;;;;41.80;17.40;;;;;;;3.99;100.00;98891.41;102883;1313;138586;-74
2023/01/07 08:13:32;;;;;;;34.30;14.00;;;;;;;3.99;100.00;98891.08;102965;1310;22474;-74
2023/01/07 08:15:59;;;;;;;46.90;15.90;;;;;;;3.98;100.00;98895.31;102862;1313;138303;-74
2023/01/07 08:18:26;;;;;;;46.70;17.90;;;;;;;3.99;100.00;98892.13;102800;1313;22514;-75
2023/01/07 08:20:54;;;;;;;38.00;15.10;;;;;;;4.00;100.00;98894.12;102818;1313;22468;-74
2023/01/07 08:23:21;;;;;;;35.50;14.80;;;;;;;3.99;100.00;98890.66;102875;1311;138091;-74
2023/01/07 08:25:48;;;;;;;44.00;17.80;;;;;;;3.95;100.00;98894.33;102960;1313;22497;-74
2023/01/07 08:28:15;;;;;;;24.30;14.00;;;;;;;3.91;100.00;98900.12;102805;1312;140438;-74
2023/01/07 08:30:41;;;;;;;35.00;17.10;;;;;;;3.86;100.00;98902.72;102821;1313;22478;-74
2023/01/07 08:33:09;;;;;;;39.80;15.60;;;;;;;3.85;100.00;98903.20;102867;1313;138557;-75
2023/01/07 08:35:35;;;;;;;26.70;13.40;;;;;;;3.88;100.00;98901.00;102972;1313;22475;-74
2023/01/07 08:38:08;;;;;;;27.20;12.80;;;;;;;3.89;100.00;98903.08;102960;1291;25306;-74
2023/01/07 08:40:36;;;;;;;56.00;16.60;;;;;;;3.88;100.00;98899.21;102950;1292;138582;-74
2023/01/07 08:43:06;;;;;;;31.50;15.80;;;;;;;3.87;100.00;98896.67;103084;1303;22475;-74
2023/01/07 08:45:33;;;;;;;38.20;17.30;;;;;;;3.85;100.00;98901.29;102873;1305;138410;-74
2023/01/07 08:48:00;;;;;;;34.80;15.90;;;;;;;3.80;100.00;98898.10;102968;1313;22485;-74
2023/01/07 08:50:29;;;;;;;28.50;15.30;;;;;;;3.75;100.00;98894.05;102979;1291;22485;-75
2023/01/07 08:52:56;;;;;;;34.10;16.80;;;;;;;3.81;100.00;98893.50;103992;1281;138495;-75
2023/01/07 08:55:24;;;;;;;32.50;16.30;;;;;;;3.94;100.00;98893.96;105012;1285;23414;-75
2023/01/07 08:57:51;;;;;;;35.10;16.30;;;;;;;4.04;100.00;98892.38;103964;1288;138403;-75
2023/01/07 09:00:18;;;;;;;28.10;15.10;;;;;;;4.15;100.00;98897.29;104241;1298;22486;-75
2023/01/07 09:02:45;;;;;;;36.10;16.10;;;;;;;4.23;100.00;98899.02;104043;1281;23071;-75
2023/01/07 09:05:12;;;;;;;34.60;14.80;;;;;;;4.28;100.00;98903.75;103697;1288;138285;-75
2023/01/07 09:07:39;;;;;;;41.80;15.00;;;;;;;4.27;100.00;98903.95;103381;1281;22473;-75
2023/01/07 09:10:08;;;;;;;47.00;15.70;;;;;;;4.25;100.00;98901.13;103239;1304;138841;-74
2023/01/07 09:12:35;;;;;;;32.90;15.10;;;;;;;4.25;100.00;98900.20;103477;1291;22534;-74
2023/01/07 09:15:03;;;;;;;32.60;14.60;;;;;;;4.25;100.00;98905.06;103477;1288;22750;-75
2023/01/07 09:17:30;;;;;;;34.30;15.70;;;;;;;4.23;100.00;98906.73;103612;1289;22522;-74
2023/01/07 09:19:57;;;;;;;31.70;13.40;;;;;;;4.25;100.00;98908.90;102975;1307;22916;-74
2023/01/07 09:22:24;;;;;;;38.30;14.60;;;;;;;4.27;100.00;98907.73;102898;1286;138244;-74
2023/01/07 09:24:51;;;;;;;40.40;15.50;;;;;;;4.30;100.00;98912.37;103373;1291;24389;-75
2023/01/07 09:27:18;;;;;;;28.50;13.50;;;;;;;4.33;100.00;98910.31;103699;1289;139938;-75
2023/01/07 09:29:45;;;;;;;32.30;15.70;;;;;;;4.38;100.00;98912.96;103133;1299;25501;-75
2023/01/07 09:32:11;;;;;;;34.10;16.70;;;;;;;4.44;100.00;98911.33;102969;1313;24281;-74
2023/01/07 09:34:38;;;;;;;33.50;16.60;;;;;;;4.49;100.00;98907.38;102959;1289;139294;-74
2023/01/07 09:37:05;;;;;;;44.70;15.70;;;;;;;4.56;100.00;98906.86;102980;1297;24235;-74
2023/01/07 09:39:33;;;;;;;26.50;12.40;;;;;;;4.62;100.00;98906.70;103539;1304;138496;-75
2023/01/07 09:42:30;;;;;;;36.40;17.40;;;;;;;4.65;100.00;98910.13;103155;1297;22480;-75
2023/01/07 09:45:29;;;;;;;36.30;16.40;;;;;;;4.69;100.00;98903.42;103016;1312;22884;-74
2023/01/07 09:47:57;;;;;;;;;;;;;;;4.74;100.00;98909.07;102977;1312;22468;-74
2023/01/07 09:50:36;;;;;;;35.70;15.80;;;;;;;4.78;100.00;98907.02;102959;1313;22519;-75
2023/01/07 09:53:11;;;;;;;35.00;16.30;;;;;;;4.88;100.00;98905.40;102975;1301;138788;-75
2023/01/07 09:55:41;;;;;;;29.70;13.80;;;;;;;4.93;100.00;98905.42;103214;1297;22491;-75
2023/01/07 09:58:14;;;;;;;;;;;;;;;4.94;100.00;98902.42;102985;1313;138255;-75
2023/01/07 10:01:20;;;;;;;33.60;17.00;;;;;;;4.98;100.00;98902.60;103809;1294;25366;-75
2023/01/07 10:03:57;;;;;;;36.00;16.50;;;;;;;5.09;100.00;98896.68;102883;1304;138412;-75
2023/01/07 10:06:42;;;;;;;40.20;17.50;;;;;;;5.15;100.00;98892.81;103220;1296;22529;-75
2023/01/07 10:09:27;;;;;;;36.70;18.60;;;;;;;5.20;100.00;98888.60;103529;1281;24374;-75
2023/01/07 10:12:16;;;;;;;42.90;19.60;;;;;;;5.27;100.00;98880.46;104054;1289;26621;-75
2023/01/07 10:15:38;;;;;;;39.10;20.30;;;;;;;5.42;100.00;98872.42;103855;1288;23690;-74
2023/01/07 10:18:40;;;;;;;34.60;19.70;;;;;;;5.61;100.00;98863.09;102934;1287;22487;-74
2023/01/07 10:21:17;;;;;;;50.50;21.60;;;;;;;5.76;100.00;98860.73;103461;1289;25290;-74
2023/01/07 10:23:50;;;;;;;39.70;21.70;;;;;;;5.88;100.00;98856.68;103028;1306;138508;-73
2023/01/07 10:26:29;;;;;;;40.80;22.10;;;;;;;5.96;100.00;98853.73;102957;1295;22255;-74
2023/01/07 10:29:10;;;;;;;43.50;21.70;;;;;;;6.05;100.00;98854.71;102416;1311;138477;-73
2023/01/07 10:31:38;;;;;;;39.80;20.50;;;;;;;6.14;100.00;98850.56;103127;1296;23515;-74
2023/01/07 10:34:14;;;;;;;38.40;20.80;;;;;;;6.20;100.00;98843.95;102564;1309;139230;-73
2023/01/07 10:36:59;;;;;;;34.10;19.20;;;;;;;6.24;100.00;98840.24;102809;1303;22512;-73
2023/01/07 10:39:52;;;;;;;34.20;17.20;;;;;;;6.30;100.00;98842.21;102285;1318;138868;-74
2023/01/07 10:42:40;;;;;;;33.50;19.50;;;;;;;6.36;100.00;98845.33;103250;1296;22734;-74
2023/01/07 10:45:43;;;;;;;40.40;20.70;;;;;;;6.42;100.00;98837.71;103307;1304;24262;-74
2023/01/07 10:48:31;;;;;;;35.60;19.30;;;;;;;6.51;100.00;98837.33;103031;1304;22499;-74
2023/01/07 10:51:22;;;;;;;35.10;19.40;;;;;;;6.59;100.00;98835.41;103122;1287;22559;-74
2023/01/07 10:54:01;;;;;;;32.60;18.00;;;;;;;6.68;100.00;98831.90;103072;1288;138116;-74
2023/01/07 10:56:38;;;;;;;31.40;18.90;;;;;;;6.74;100.00;98832.64;102984;1312;24093;-75
2023/01/07 10:59:12;;;;;;;34.10;17.60;;;;;;;6.80;100.00;98829.98;102828;1298;138319;-74
2023/01/07 11:01:45;;;;;;;32.80;18.50;;;;;;;6.87;99.97;98832.91;103514;1306;22496;-75
2023/01/07 11:04:14;;;;;;;35.20;19.30;;;;;;;6.91;99.93;98833.77;102881;1311;138116;-74
2023/01/07 11:07:02;;;;;;;32.70;19.00;;;;;;;6.95;99.90;98828.17;103431;1297;24825;-74
2023/01/07 11:09:34;;;;;;;34.40;19.10;;;;;;;7.02;99.92;98831.17;102902;1304;140155;-75
2023/01/07 11:12:15;;;;;;;33.60;18.40;;;;;;;7.09;100.00;98829.18;103280;1298;22495;-75
2023/01/07 11:14:42;;;;;;;26.20;15.50;;;;;;;7.14;99.77;98825.48;102919;1300;25296;-74
2023/01/07 11:17:31;;;;;;;32.90;18.30;;;;;;;7.20;99.63;98820.31;103976;1281;138110;-76
2023/01/07 11:19:58;;;;;;;31.80;18.60;;;;;;;7.28;99.61;98824.10;103273;1298;25447;-75
2023/01/07 11:22:25;;;;;;;33.40;17.90;;;;;;;7.34;99.74;98821.98;102935;1311;138121;-76
2023/01/07 11:24:54;;;;;;;29.70;17.30;;;;;;;7.42;99.37;98822.52;102924;1297;22495;-75
2023/01/07 11:27:24;;;;;;;29.30;17.30;;;;;;;7.49;99.20;98818.48;103107;1298;22487;-75
2023/01/07 11:30:09;;;;;;;26.50;16.50;;;;;;;7.55;98.94;98815.41;102942;1310;26567;-75
2023/01/07 11:32:39;;;;;;;27.10;15.10;;;;;;;7.63;98.53;98816.86;102931;1298;22480;-75
2023/01/07 11:35:29;;;;;;;22.80;14.40;;;;;;;7.69;98.12;98811.07;102847;1313;138115;-76
2023/01/07 11:37:57;;;;;;;24.40;15.90;;;;;;;7.75;97.34;98807.36;102978;1297;22499;-75
2023/01/07 11:40:30;;;;;;;25.40;15.60;;;;;;;7.80;97.10;98803.23;102903;1295;139747;-76
2023/01/07 11:43:34;;;;;;;23.60;14.10;;;;;;;7.86;96.75;98799.87;103109;1304;22546;-75